sensor_id;sensor_type;location;lat;lon;timestamp;temperature;humidity
25628;DHT22;40915;50.826;4.356;2022-11-28T00:00:32;9.00;99.90
25628;DHT22;40915;50.826;4.356;2022-11-28T00:02:57;9.00;99.90
25628;DHT22;40915;50.826;4.356;2022-11-28T00:05:23;9.00;99.90
25628;DHT22;40915;50.826;4.356;2022-11-28T00:07:48;9.00;99.90
25628;DHT22;40915;50.826;4.356;2022-11-28T00:10:14;8.90;99.90
25628;DHT22;40915;50.826;4.356;2022-11-28T00:12:40;8.90;99.90
25628;DHT22;40915;50.826;4.356;2022-11-28T00:15:05;8.90;99.90
25628;DHT22;40915;50.826;4.356;2022-11-28T00:17:31;8.90;99.90
25628;DHT22;40915;50.826;4.356;2022-11-28T00:19:57;8.90;99.90
25628;DHT22;40915;50.826;4.356;2022-11-28T00:22:23;8.90;99.90
25628;DHT22;40915;50.826;4.356;2022-11-28T00:24:49;8.90;99.90
25628;DHT22;40915;50.826;4.356;2022-11-28T00:27:14;8.90;99.90
25628;DHT22;40915;50.826;4.356;2022-11-28T00:29:40;8.90;99.90
25628;DHT22;40915;50.826;4.356;2022-11-28T00:32:06;8.90;99.90
25628;DHT22;40915;50.826;4.356;2022-11-28T00:34:31;8.90;99.90
25628;DHT22;40915;50.826;4.356;2022-11-28T00:36:57;8.90;99.90
25628;DHT22;40915;50.826;4.356;2022-11-28T00:39:22;8.90;99.90
25628;DHT22;40915;50.826;4.356;2022-11-28T00:41:48;8.90;99.90
25628;DHT22;40915;50.826;4.356;2022-11-28T00:44:14;8.90;99.90
25628;DHT22;40915;50.826;4.356;2022-11-28T00:46:40;8.90;99.90
25628;DHT22;40915;50.826;4.356;2022-11-28T00:49:05;8.90;99.90
25628;DHT22;40915;50.826;4.356;2022-11-28T00:51:32;8.80;99.90
25628;DHT22;40915;50.826;4.356;2022-11-28T00:54:00;8.80;99.90
25628;DHT22;40915;50.826;4.356;2022-11-28T00:56:29;8.80;99.90
25628;DHT22;40915;50.826;4.356;2022-11-28T00:58:55;8.80;99.90
25628;DHT22;40915;50.826;4.356;2022-11-28T01:01:29;8.80;99.90
25628;DHT22;40915;50.826;4.356;2022-11-28T01:03:57;8.70;99.90
25628;DHT22;40915;50.826;4.356;2022-11-28T01:06:35;8.70;99.90
25628;DHT22;40915;50.826;4.356;2022-11-28T01:09:08;8.60;99.90
25628;DHT22;40915;50.826;4.356;2022-11-28T01:11:37;8.60;99.90
25628;DHT22;40915;50.826;4.356;2022-11-28T01:14:03;8.60;99.90
25628;DHT22;40915;50.826;4.356;2022-11-28T01:16:29;8.60;99.90
25628;DHT22;40915;50.826;4.356;2022-11-28T01:18:54;8.60;99.90
25628;DHT22;40915;50.826;4.356;2022-11-28T01:21:20;8.50;99.90
25628;DHT22;40915;50.826;4.356;2022-11-28T01:23:46;8.50;99.90
25628;DHT22;40915;50.826;4.356;2022-11-28T01:26:18;8.50;99.90
25628;DHT22;40915;50.826;4.356;2022-11-28T01:28:45;8.50;99.90
25628;DHT22;40915;50.826;4.356;2022-11-28T01:31:15;8.40;99.90
25628;DHT22;40915;50.826;4.356;2022-11-28T01:33:41;8.40;99.90
25628;DHT22;40915;50.826;4.356;2022-11-28T01:36:08;8.50;99.90
25628;DHT22;40915;50.826;4.356;2022-11-28T01:38:34;8.50;99.90
25628;DHT22;40915;50.826;4.356;2022-11-28T01:41:00;8.40;99.90
25628;DHT22;40915;50.826;4.356;2022-11-28T01:43:26;8.40;99.90
25628;DHT22;40915;50.826;4.356;2022-11-28T01:45:52;8.30;99.90
25628;DHT22;40915;50.826;4.356;2022-11-28T01:48:28;8.30;99.90
25628;DHT22;40915;50.826;4.356;2022-11-28T01:51:01;8.30;99.90
25628;DHT22;40915;50.826;4.356;2022-11-28T01:53:29;8.30;99.90
25628;DHT22;40915;50.826;4.356;2022-11-28T01:56:00;8.20;99.90
25628;DHT22;40915;50.826;4.356;2022-11-28T01:58:27;8.20;99.90
25628;DHT22;40915;50.826;4.356;2022-11-28T02:00:53;8.20;99.90
25628;DHT22;40915;50.826;4.356;2022-11-28T02:03:30;8.20;99.90
25628;DHT22;40915;50.826;4.356;2022-11-28T02:05:57;8.20;99.90
25628;DHT22;40915;50.826;4.356;2022-11-28T02:08:24;8.20;99.90
25628;DHT22;40915;50.826;4.356;2022-11-28T02:11:15;8.10;99.90
25628;DHT22;40915;50.826;4.356;2022-11-28T02:14:29;8.10;99.90
25628;DHT22;40915;50.826;4.356;2022-11-28T02:22:18;8.20;99.90
25628;DHT22;40915;50.826;4.356;2022-11-28T02:27:51;8.30;99.90
25628;DHT22;40915;50.826;4.356;2022-11-28T02:30:32;8.20;99.90
25628;DHT22;40915;50.826;4.356;2022-11-28T02:33:10;8.30;99.90
25628;DHT22;40915;50.826;4.356;2022-11-28T02:36:12;8.30;99.90
25628;DHT22;40915;50.826;4.356;2022-11-28T02:38:54;8.30;99.90
25628;DHT22;40915;50.826;4.356;2022-11-28T02:41:33;8.30;99.90
25628;DHT22;40915;50.826;4.356;2022-11-28T02:44:15;8.30;99.90
25628;DHT22;40915;50.826;4.356;2022-11-28T02:47:02;8.30;99.90
25628;DHT22;40915;50.826;4.356;2022-11-28T02:49:36;8.30;99.90
25628;DHT22;40915;50.826;4.356;2022-11-28T02:52:27;8.20;99.90
25628;DHT22;40915;50.826;4.356;2022-11-28T02:54:54;8.20;99.90
25628;DHT22;40915;50.826;4.356;2022-11-28T02:57:20;8.20;99.90
25628;DHT22;40915;50.826;4.356;2022-11-28T02:59:48;8.20;99.90
25628;DHT22;40915;50.826;4.356;2022-11-28T03:10:22;8.30;99.90
25628;DHT22;40915;50.826;4.356;2022-11-28T03:12:55;8.30;99.90
25628;DHT22;40915;50.826;4.356;2022-11-28T03:15:31;8.20;99.90
25628;DHT22;40915;50.826;4.356;2022-11-28T03:18:11;8.20;99.90
25628;DHT22;40915;50.826;4.356;2022-11-28T03:20:53;8.20;99.90
25628;DHT22;40915;50.826;4.356;2022-11-28T03:23:29;8.20;99.90
25628;DHT22;40915;50.826;4.356;2022-11-28T03:31:20;8.30;99.90
25628;DHT22;40915;50.826;4.356;2022-11-28T03:33:50;8.30;99.90
25628;DHT22;40915;50.826;4.356;2022-11-28T03:36:29;8.30;99.90
25628;DHT22;40915;50.826;4.356;2022-11-28T03:39:09;8.30;99.90
25628;DHT22;40915;50.826;4.356;2022-11-28T03:41:38;8.30;99.90
25628;DHT22;40915;50.826;4.356;2022-11-28T03:44:08;8.40;99.90
25628;DHT22;40915;50.826;4.356;2022-11-28T03:46:38;8.40;99.90
25628;DHT22;40915;50.826;4.356;2022-11-28T03:49:06;8.30;99.90
25628;DHT22;40915;50.826;4.356;2022-11-28T03:52:01;8.30;99.90
25628;DHT22;40915;50.826;4.356;2022-11-28T03:54:31;8.30;99.90
25628;DHT22;40915;50.826;4.356;2022-11-28T03:59:42;8.40;99.90
25628;DHT22;40915;50.826;4.356;2022-11-28T04:08:00;8.40;99.90
25628;DHT22;40915;50.826;4.356;2022-11-28T04:14:07;8.30;99.90
25628;DHT22;40915;50.826;4.356;2022-11-28T04:16:39;8.30;99.90
25628;DHT22;40915;50.826;4.356;2022-11-28T04:19:22;8.30;99.90
25628;DHT22;40915;50.826;4.356;2022-11-28T04:22:10;8.40;99.90
25628;DHT22;40915;50.826;4.356;2022-11-28T04:24:40;8.30;99.90
25628;DHT22;40915;50.826;4.356;2022-11-28T04:27:14;8.30;99.90
25628;DHT22;40915;50.826;4.356;2022-11-28T04:29:45;8.30;99.90
25628;DHT22;40915;50.826;4.356;2022-11-28T04:32:12;8.30;99.90
25628;DHT22;40915;50.826;4.356;2022-11-28T04:34:42;8.30;99.90
25628;DHT22;40915;50.826;4.356;2022-11-28T04:37:09;8.40;99.90
25628;DHT22;40915;50.826;4.356;2022-11-28T04:39:41;8.40;99.90
25628;DHT22;40915;50.826;4.356;2022-11-28T04:42:17;8.40;99.90
25628;DHT22;40915;50.826;4.356;2022-11-28T04:47:24;8.40;99.90
25628;DHT22;40915;50.826;4.356;2022-11-28T04:49:50;8.40;99.90
25628;DHT22;40915;50.826;4.356;2022-11-28T04:57:21;8.40;99.90
25628;DHT22;40915;50.826;4.356;2022-11-28T04:59:49;8.40;99.90
25628;DHT22;40915;50.826;4.356;2022-11-28T05:02:16;8.40;99.90
25628;DHT22;40915;50.826;4.356;2022-11-28T05:04:43;8.40;99.90
25628;DHT22;40915;50.826;4.356;2022-11-28T05:07:09;8.40;99.90
25628;DHT22;40915;50.826;4.356;2022-11-28T05:09:35;8.40;99.90
25628;DHT22;40915;50.826;4.356;2022-11-28T05:12:00;8.40;99.90
25628;DHT22;40915;50.826;4.356;2022-11-28T05:14:26;8.40;99.90
25628;DHT22;40915;50.826;4.356;2022-11-28T05:16:52;8.40;99.90
25628;DHT22;40915;50.826;4.356;2022-11-28T05:19:17;8.40;99.90
25628;DHT22;40915;50.826;4.356;2022-11-28T05:21:43;8.40;99.90
25628;DHT22;40915;50.826;4.356;2022-11-28T05:24:09;8.40;99.90
25628;DHT22;40915;50.826;4.356;2022-11-28T05:26:35;8.40;99.90
25628;DHT22;40915;50.826;4.356;2022-11-28T05:29:03;8.50;99.90
25628;DHT22;40915;50.826;4.356;2022-11-28T05:31:28;8.50;99.90
25628;DHT22;40915;50.826;4.356;2022-11-28T05:33:55;8.50;99.90
25628;DHT22;40915;50.826;4.356;2022-11-28T05:36:21;8.50;99.90
25628;DHT22;40915;50.826;4.356;2022-11-28T05:38:47;8.50;99.90
25628;DHT22;40915;50.826;4.356;2022-11-28T05:41:21;8.50;99.90
25628;DHT22;40915;50.826;4.356;2022-11-28T05:43:47;8.50;99.90
25628;DHT22;40915;50.826;4.356;2022-11-28T05:46:13;8.60;99.90
25628;DHT22;40915;50.826;4.356;2022-11-28T05:48:39;8.50;99.90
25628;DHT22;40915;50.826;4.356;2022-11-28T05:51:05;8.60;99.90
25628;DHT22;40915;50.826;4.356;2022-11-28T05:53:31;8.60;99.90
25628;DHT22;40915;50.826;4.356;2022-11-28T05:55:56;8.60;99.90
25628;DHT22;40915;50.826;4.356;2022-11-28T05:58:22;8.60;99.90
25628;DHT22;40915;50.826;4.356;2022-11-28T06:00:48;8.60;99.90
25628;DHT22;40915;50.826;4.356;2022-11-28T06:03:14;8.60;99.90
25628;DHT22;40915;50.826;4.356;2022-11-28T06:05:41;8.60;99.90
25628;DHT22;40915;50.826;4.356;2022-11-28T06:08:07;8.60;99.90
25628;DHT22;40915;50.826;4.356;2022-11-28T06:10:33;8.60;99.90
25628;DHT22;40915;50.826;4.356;2022-11-28T06:12:59;8.70;99.90
25628;DHT22;40915;50.826;4.356;2022-11-28T06:15:25;8.70;99.90
25628;DHT22;40915;50.826;4.356;2022-11-28T06:17:50;8.70;99.90
25628;DHT22;40915;50.826;4.356;2022-11-28T06:20:16;8.60;99.90
25628;DHT22;40915;50.826;4.356;2022-11-28T06:22:42;8.70;99.90
25628;DHT22;40915;50.826;4.356;2022-11-28T06:25:07;8.70;99.90
25628;DHT22;40915;50.826;4.356;2022-11-28T06:27:34;8.70;99.90
25628;DHT22;40915;50.826;4.356;2022-11-28T06:29:59;8.70;99.90
25628;DHT22;40915;50.826;4.356;2022-11-28T06:32:25;8.60;99.90
25628;DHT22;40915;50.826;4.356;2022-11-28T06:34:50;8.70;99.90
25628;DHT22;40915;50.826;4.356;2022-11-28T06:37:16;8.70;99.90
25628;DHT22;40915;50.826;4.356;2022-11-28T06:39:41;8.70;99.90
25628;DHT22;40915;50.826;4.356;2022-11-28T06:42:07;8.60;99.90
25628;DHT22;40915;50.826;4.356;2022-11-28T06:44:33;8.70;99.90
25628;DHT22;40915;50.826;4.356;2022-11-28T06:46:58;8.60;99.90
25628;DHT22;40915;50.826;4.356;2022-11-28T06:49:24;8.60;99.90
25628;DHT22;40915;50.826;4.356;2022-11-28T06:51:49;8.60;99.90
25628;DHT22;40915;50.826;4.356;2022-11-28T06:54:15;8.60;99.90
25628;DHT22;40915;50.826;4.356;2022-11-28T06:56:41;8.60;99.90
25628;DHT22;40915;50.826;4.356;2022-11-28T06:59:10;8.60;99.90
25628;DHT22;40915;50.826;4.356;2022-11-28T07:01:36;8.60;99.90
25628;DHT22;40915;50.826;4.356;2022-11-28T07:04:02;8.60;99.90
25628;DHT22;40915;50.826;4.356;2022-11-28T07:06:28;8.60;99.90
25628;DHT22;40915;50.826;4.356;2022-11-28T07:08:56;8.60;99.90
25628;DHT22;40915;50.826;4.356;2022-11-28T07:11:27;8.60;99.90
25628;DHT22;40915;50.826;4.356;2022-11-28T07:13:54;8.60;99.90
25628;DHT22;40915;50.826;4.356;2022-11-28T07:16:25;8.70;99.90
25628;DHT22;40915;50.826;4.356;2022-11-28T07:18:51;8.70;99.90
25628;DHT22;40915;50.826;4.356;2022-11-28T07:21:18;8.70;99.90
25628;DHT22;40915;50.826;4.356;2022-11-28T07:23:44;8.70;99.90
25628;DHT22;40915;50.826;4.356;2022-11-28T07:26:12;8.80;99.90
25628;DHT22;40915;50.826;4.356;2022-11-28T07:28:39;8.80;99.90
25628;DHT22;40915;50.826;4.356;2022-11-28T07:33:36;8.90;99.90
25628;DHT22;40915;50.826;4.356;2022-11-28T07:36:04;8.90;99.90
25628;DHT22;40915;50.826;4.356;2022-11-28T07:38:30;8.90;99.90
25628;DHT22;40915;50.826;4.356;2022-11-28T07:41:12;8.90;99.90
25628;DHT22;40915;50.826;4.356;2022-11-28T07:43:42;8.90;99.90
25628;DHT22;40915;50.826;4.356;2022-11-28T07:46:11;9.00;99.90
25628;DHT22;40915;50.826;4.356;2022-11-28T07:48:37;9.00;99.90
25628;DHT22;40915;50.826;4.356;2022-11-28T07:51:08;9.00;99.90
25628;DHT22;40915;50.826;4.356;2022-11-28T07:53:34;9.00;99.90
25628;DHT22;40915;50.826;4.356;2022-11-28T07:56:01;9.00;99.90
25628;DHT22;40915;50.826;4.356;2022-11-28T07:58:28;9.00;99.90
25628;DHT22;40915;50.826;4.356;2022-11-28T08:00:54;9.10;99.90
25628;DHT22;40915;50.826;4.356;2022-11-28T08:03:19;9.10;99.90
25628;DHT22;40915;50.826;4.356;2022-11-28T08:05:45;9.10;99.90
25628;DHT22;40915;50.826;4.356;2022-11-28T08:08:18;9.00;99.90
25628;DHT22;40915;50.826;4.356;2022-11-28T08:10:44;9.10;99.90
25628;DHT22;40915;50.826;4.356;2022-11-28T08:13:11;9.10;99.90
25628;DHT22;40915;50.826;4.356;2022-11-28T08:15:38;9.10;99.90
25628;DHT22;40915;50.826;4.356;2022-11-28T08:18:07;9.10;99.90
25628;DHT22;40915;50.826;4.356;2022-11-28T08:20:32;9.10;99.90
25628;DHT22;40915;50.826;4.356;2022-11-28T08:22:58;9.10;99.90
25628;DHT22;40915;50.826;4.356;2022-11-28T08:25:24;9.10;99.90
25628;DHT22;40915;50.826;4.356;2022-11-28T08:27:49;9.10;99.90
25628;DHT22;40915;50.826;4.356;2022-11-28T08:30:15;9.10;99.90
25628;DHT22;40915;50.826;4.356;2022-11-28T08:32:40;9.20;99.90
25628;DHT22;40915;50.826;4.356;2022-11-28T08:35:06;9.10;99.90
25628;DHT22;40915;50.826;4.356;2022-11-28T08:37:32;9.20;99.90
25628;DHT22;40915;50.826;4.356;2022-11-28T08:39:57;9.20;99.90
25628;DHT22;40915;50.826;4.356;2022-11-28T08:42:23;9.20;99.90
25628;DHT22;40915;50.826;4.356;2022-11-28T08:44:48;9.20;99.90
25628;DHT22;40915;50.826;4.356;2022-11-28T08:47:14;9.30;99.90
25628;DHT22;40915;50.826;4.356;2022-11-28T08:49:40;9.20;99.90
25628;DHT22;40915;50.826;4.356;2022-11-28T08:52:06;9.30;99.90
25628;DHT22;40915;50.826;4.356;2022-11-28T08:54:31;9.30;99.90
25628;DHT22;40915;50.826;4.356;2022-11-28T08:56:57;9.30;99.90
25628;DHT22;40915;50.826;4.356;2022-11-28T08:59:24;9.30;99.90
25628;DHT22;40915;50.826;4.356;2022-11-28T09:01:53;9.30;99.90
25628;DHT22;40915;50.826;4.356;2022-11-28T09:04:20;9.40;99.90
25628;DHT22;40915;50.826;4.356;2022-11-28T09:06:45;9.40;99.90
25628;DHT22;40915;50.826;4.356;2022-11-28T09:09:11;9.30;99.90
25628;DHT22;40915;50.826;4.356;2022-11-28T09:11:37;9.30;99.90
25628;DHT22;40915;50.826;4.356;2022-11-28T09:14:03;9.30;99.90
25628;DHT22;40915;50.826;4.356;2022-11-28T09:16:28;9.40;99.90
25628;DHT22;40915;50.826;4.356;2022-11-28T09:18:54;9.40;99.90
25628;DHT22;40915;50.826;4.356;2022-11-28T09:21:22;9.50;99.90
25628;DHT22;40915;50.826;4.356;2022-11-28T09:23:47;9.50;99.90
25628;DHT22;40915;50.826;4.356;2022-11-28T09:26:18;9.50;99.90
25628;DHT22;40915;50.826;4.356;2022-11-28T09:28:45;9.50;99.90
25628;DHT22;40915;50.826;4.356;2022-11-28T09:31:11;9.50;99.90
25628;DHT22;40915;50.826;4.356;2022-11-28T09:33:37;9.60;99.90
25628;DHT22;40915;50.826;4.356;2022-11-28T09:36:08;9.60;99.90
25628;DHT22;40915;50.826;4.356;2022-11-28T09:38:35;9.60;99.90
25628;DHT22;40915;50.826;4.356;2022-11-28T09:41:02;9.60;99.90
25628;DHT22;40915;50.826;4.356;2022-11-28T09:43:36;9.60;99.90
25628;DHT22;40915;50.826;4.356;2022-11-28T09:46:11;9.60;99.90
25628;DHT22;40915;50.826;4.356;2022-11-28T09:48:43;9.60;99.90
25628;DHT22;40915;50.826;4.356;2022-11-28T09:51:52;9.60;99.90
25628;DHT22;40915;50.826;4.356;2022-11-28T09:54:43;9.70;99.90
25628;DHT22;40915;50.826;4.356;2022-11-28T09:57:15;9.70;99.90
25628;DHT22;40915;50.826;4.356;2022-11-28T09:59:42;9.80;99.90
25628;DHT22;40915;50.826;4.356;2022-11-28T10:02:33;9.80;99.90
25628;DHT22;40915;50.826;4.356;2022-11-28T10:05:28;9.90;99.90
25628;DHT22;40915;50.826;4.356;2022-11-28T10:08:21;10.00;99.90
25628;DHT22;40915;50.826;4.356;2022-11-28T10:19:15;10.00;99.90
25628;DHT22;40915;50.826;4.356;2022-11-28T10:21:50;10.00;99.90
25628;DHT22;40915;50.826;4.356;2022-11-28T10:24:33;10.10;99.90
25628;DHT22;40915;50.826;4.356;2022-11-28T10:27:03;10.10;99.90
25628;DHT22;40915;50.826;4.356;2022-11-28T10:29:37;10.20;99.90
25628;DHT22;40915;50.826;4.356;2022-11-28T10:32:11;10.30;99.90
25628;DHT22;40915;50.826;4.356;2022-11-28T10:37:10;10.30;99.90
25628;DHT22;40915;50.826;4.356;2022-11-28T10:39:42;10.30;99.90
25628;DHT22;40915;50.826;4.356;2022-11-28T10:50:18;10.40;99.90
25628;DHT22;40915;50.826;4.356;2022-11-28T10:52:58;10.50;99.90
25628;DHT22;40915;50.826;4.356;2022-11-28T10:55:47;10.50;99.90
25628;DHT22;40915;50.826;4.356;2022-11-28T10:58:23;10.50;99.90
25628;DHT22;40915;50.826;4.356;2022-11-28T11:00:52;10.40;99.90
25628;DHT22;40915;50.826;4.356;2022-11-28T11:03:25;10.40;99.90
25628;DHT22;40915;50.826;4.356;2022-11-28T11:05:51;10.40;99.90
25628;DHT22;40915;50.826;4.356;2022-11-28T11:08:26;10.30;99.90
25628;DHT22;40915;50.826;4.356;2022-11-28T11:11:03;10.40;99.90
25628;DHT22;40915;50.826;4.356;2022-11-28T11:13:35;10.40;99.90
25628;DHT22;40915;50.826;4.356;2022-11-28T11:16:19;10.40;99.90
25628;DHT22;40915;50.826;4.356;2022-11-28T11:23:45;10.40;99.90
25628;DHT22;40915;50.826;4.356;2022-11-28T11:26:33;10.40;99.90
25628;DHT22;40915;50.826;4.356;2022-11-28T11:29:02;10.50;99.90
25628;DHT22;40915;50.826;4.356;2022-11-28T11:31:43;10.50;99.90
25628;DHT22;40915;50.826;4.356;2022-11-28T11:34:17;10.50;99.90
25628;DHT22;40915;50.826;4.356;2022-11-28T11:36:44;10.50;99.90
25628;DHT22;40915;50.826;4.356;2022-11-28T11:39:22;10.60;99.90
25628;DHT22;40915;50.826;4.356;2022-11-28T11:42:10;10.60;99.90
25628;DHT22;40915;50.826;4.356;2022-11-28T11:44:43;10.60;99.90
25628;DHT22;40915;50.826;4.356;2022-11-28T11:47:09;10.50;99.90
25628;DHT22;40915;50.826;4.356;2022-11-28T11:49:39;10.60;99.90
25628;DHT22;40915;50.826;4.356;2022-11-28T11:57:37;10.50;99.90
25628;DHT22;40915;50.826;4.356;2022-11-28T12:00:09;10.50;99.90
25628;DHT22;40915;50.826;4.356;2022-11-28T12:02:59;10.50;99.90
25628;DHT22;40915;50.826;4.356;2022-11-28T12:05:53;10.40;99.90
25628;DHT22;40915;50.826;4.356;2022-11-28T12:11:22;10.40;99.90
25628;DHT22;40915;50.826;4.356;2022-11-28T12:13:50;10.50;99.90
25628;DHT22;40915;50.826;4.356;2022-11-28T12:24:14;10.50;99.90
25628;DHT22;40915;50.826;4.356;2022-11-28T12:37:44;10.60;99.90
25628;DHT22;40915;50.826;4.356;2022-11-28T12:40:32;10.70;99.90
25628;DHT22;40915;50.826;4.356;2022-11-28T12:48:40;10.60;99.90
25628;DHT22;40915;50.826;4.356;2022-11-28T12:51:34;10.60;99.90
25628;DHT22;40915;50.826;4.356;2022-11-28T12:57:03;10.50;99.90
25628;DHT22;40915;50.826;4.356;2022-11-28T13:02:46;10.60;99.90
25628;DHT22;40915;50.826;4.356;2022-11-28T13:08:26;10.50;99.90
25628;DHT22;40915;50.826;4.356;2022-11-28T13:14:00;10.50;99.90
25628;DHT22;40915;50.826;4.356;2022-11-28T13:16:44;10.40;99.90
25628;DHT22;40915;50.826;4.356;2022-11-28T13:22:05;10.40;99.90
25628;DHT22;40915;50.826;4.356;2022-11-28T13:29:50;10.40;99.90
25628;DHT22;40915;50.826;4.356;2022-11-28T13:32:19;10.40;99.90
25628;DHT22;40915;50.826;4.356;2022-11-28T13:34:47;10.50;99.90
25628;DHT22;40915;50.826;4.356;2022-11-28T13:37:32;10.40;99.90
25628;DHT22;40915;50.826;4.356;2022-11-28T13:40:33;10.40;99.90
25628;DHT22;40915;50.826;4.356;2022-11-28T13:43:24;10.50;99.90
25628;DHT22;40915;50.826;4.356;2022-11-28T13:45:53;10.40;99.90
25628;DHT22;40915;50.826;4.356;2022-11-28T13:53:35;10.40;99.90
25628;DHT22;40915;50.826;4.356;2022-11-28T13:58:58;10.50;99.90
25628;DHT22;40915;50.826;4.356;2022-11-28T14:01:27;10.50;99.90
25628;DHT22;40915;50.826;4.356;2022-11-28T14:06:29;10.50;99.90
25628;DHT22;40915;50.826;4.356;2022-11-28T14:27:36;10.40;99.90
25628;DHT22;40915;50.826;4.356;2022-11-28T14:30:04;10.40;99.90
25628;DHT22;40915;50.826;4.356;2022-11-28T14:32:36;10.40;99.90
25628;DHT22;40915;50.826;4.356;2022-11-28T14:35:04;10.40;99.90
25628;DHT22;40915;50.826;4.356;2022-11-28T14:39:59;10.40;99.90
25628;DHT22;40915;50.826;4.356;2022-11-28T14:44:58;10.40;99.90
25628;DHT22;40915;50.826;4.356;2022-11-28T14:52:30;10.40;99.90
25628;DHT22;40915;50.826;4.356;2022-11-28T14:54:56;10.40;99.90
25628;DHT22;40915;50.826;4.356;2022-11-28T14:57:25;10.40;99.90
25628;DHT22;40915;50.826;4.356;2022-11-28T14:59:52;10.50;99.90
25628;DHT22;40915;50.826;4.356;2022-11-28T15:11:03;10.40;99.90
25628;DHT22;40915;50.826;4.356;2022-11-28T15:13:44;10.40;99.90
25628;DHT22;40915;50.826;4.356;2022-11-28T15:16:18;10.40;99.90
25628;DHT22;40915;50.826;4.356;2022-11-28T15:18:53;10.40;99.90
25628;DHT22;40915;50.826;4.356;2022-11-28T15:21:22;10.40;99.90
25628;DHT22;40915;50.826;4.356;2022-11-28T15:23:48;10.40;99.90
25628;DHT22;40915;50.826;4.356;2022-11-28T15:26:20;10.40;99.90
25628;DHT22;40915;50.826;4.356;2022-11-28T15:28:46;10.40;99.90
25628;DHT22;40915;50.826;4.356;2022-11-28T15:31:20;10.40;99.90
25628;DHT22;40915;50.826;4.356;2022-11-28T15:33:47;10.40;99.90
25628;DHT22;40915;50.826;4.356;2022-11-28T15:36:26;10.40;99.90
25628;DHT22;40915;50.826;4.356;2022-11-28T15:38:53;10.30;99.90
25628;DHT22;40915;50.826;4.356;2022-11-28T15:41:23;10.30;99.90
25628;DHT22;40915;50.826;4.356;2022-11-28T15:43:50;10.30;99.90
25628;DHT22;40915;50.826;4.356;2022-11-28T15:46:19;10.30;99.90
25628;DHT22;40915;50.826;4.356;2022-11-28T15:48:51;10.20;99.90
25628;DHT22;40915;50.826;4.356;2022-11-28T15:51:25;10.20;99.90
25628;DHT22;40915;50.826;4.356;2022-11-28T15:53:51;10.20;99.90
25628;DHT22;40915;50.826;4.356;2022-11-28T15:56:16;10.20;99.90
25628;DHT22;40915;50.826;4.356;2022-11-28T15:58:44;10.10;99.90
25628;DHT22;40915;50.826;4.356;2022-11-28T16:01:23;10.10;99.90
25628;DHT22;40915;50.826;4.356;2022-11-28T16:06:18;10.10;99.90
25628;DHT22;40915;50.826;4.356;2022-11-28T16:11:15;10.10;99.90
25628;DHT22;40915;50.826;4.356;2022-11-28T16:13:43;10.00;99.90
25628;DHT22;40915;50.826;4.356;2022-11-28T16:16:13;10.00;99.90
25628;DHT22;40915;50.826;4.356;2022-11-28T16:18:47;10.00;99.90
25628;DHT22;40915;50.826;4.356;2022-11-28T16:21:17;10.00;99.90
25628;DHT22;40915;50.826;4.356;2022-11-28T16:23:46;9.90;99.90
25628;DHT22;40915;50.826;4.356;2022-11-28T16:26:33;9.90;99.90
25628;DHT22;40915;50.826;4.356;2022-11-28T16:31:34;9.80;99.90
25628;DHT22;40915;50.826;4.356;2022-11-28T16:34:01;9.80;99.90
25628;DHT22;40915;50.826;4.356;2022-11-28T16:36:36;9.80;99.90
25628;DHT22;40915;50.826;4.356;2022-11-28T16:39:14;9.80;99.90
25628;DHT22;40915;50.826;4.356;2022-11-28T16:42:04;9.80;99.90
25628;DHT22;40915;50.826;4.356;2022-11-28T16:44:30;9.80;99.90
25628;DHT22;40915;50.826;4.356;2022-11-28T16:46:58;9.80;99.90
25628;DHT22;40915;50.826;4.356;2022-11-28T16:49:38;9.80;99.90
25628;DHT22;40915;50.826;4.356;2022-11-28T16:54:54;9.80;99.90
25628;DHT22;40915;50.826;4.356;2022-11-28T16:57:21;9.70;99.90
25628;DHT22;40915;50.826;4.356;2022-11-28T16:59:48;9.80;99.90
25628;DHT22;40915;50.826;4.356;2022-11-28T17:04:44;9.80;99.90
25628;DHT22;40915;50.826;4.356;2022-11-28T17:07:12;9.80;99.90
25628;DHT22;40915;50.826;4.356;2022-11-28T17:09:39;9.80;99.90
25628;DHT22;40915;50.826;4.356;2022-11-28T17:12:24;9.80;99.90
25628;DHT22;40915;50.826;4.356;2022-11-28T17:14:50;9.80;99.90
25628;DHT22;40915;50.826;4.356;2022-11-28T17:17:17;9.80;99.90
25628;DHT22;40915;50.826;4.356;2022-11-28T17:19:44;9.70;99.90
25628;DHT22;40915;50.826;4.356;2022-11-28T17:22:15;9.70;99.90
25628;DHT22;40915;50.826;4.356;2022-11-28T17:24:41;9.70;99.90
25628;DHT22;40915;50.826;4.356;2022-11-28T17:27:10;9.70;99.90
25628;DHT22;40915;50.826;4.356;2022-11-28T17:29:36;9.70;99.90
25628;DHT22;40915;50.826;4.356;2022-11-28T17:32:01;9.60;99.90
25628;DHT22;40915;50.826;4.356;2022-11-28T17:34:30;9.70;99.90
25628;DHT22;40915;50.826;4.356;2022-11-28T17:36:57;9.60;99.90
25628;DHT22;40915;50.826;4.356;2022-11-28T17:39:23;9.60;99.90
25628;DHT22;40915;50.826;4.356;2022-11-28T17:41:49;9.60;99.90
25628;DHT22;40915;50.826;4.356;2022-11-28T17:44:24;9.60;99.90
25628;DHT22;40915;50.826;4.356;2022-11-28T17:46:51;9.60;99.90
25628;DHT22;40915;50.826;4.356;2022-11-28T17:49:18;9.70;99.90
25628;DHT22;40915;50.826;4.356;2022-11-28T17:51:44;9.70;99.90
25628;DHT22;40915;50.826;4.356;2022-11-28T17:54:11;9.70;99.90
25628;DHT22;40915;50.826;4.356;2022-11-28T17:56:41;9.70;99.90
25628;DHT22;40915;50.826;4.356;2022-11-28T17:59:10;9.70;99.90
25628;DHT22;40915;50.826;4.356;2022-11-28T18:01:36;9.70;99.90
25628;DHT22;40915;50.826;4.356;2022-11-28T18:04:02;9.60;99.90
25628;DHT22;40915;50.826;4.356;2022-11-28T18:06:29;9.60;99.90
25628;DHT22;40915;50.826;4.356;2022-11-28T18:08:57;9.60;99.90
25628;DHT22;40915;50.826;4.356;2022-11-28T18:11:23;9.60;99.90
25628;DHT22;40915;50.826;4.356;2022-11-28T18:13:48;9.60;99.90
25628;DHT22;40915;50.826;4.356;2022-11-28T18:16:17;9.60;99.90
25628;DHT22;40915;50.826;4.356;2022-11-28T18:18:43;9.60;99.90
25628;DHT22;40915;50.826;4.356;2022-11-28T18:21:09;9.50;99.90
25628;DHT22;40915;50.826;4.356;2022-11-28T18:23:39;9.50;99.90
25628;DHT22;40915;50.826;4.356;2022-11-28T18:26:09;9.50;99.90
25628;DHT22;40915;50.826;4.356;2022-11-28T18:28:35;9.50;99.90
25628;DHT22;40915;50.826;4.356;2022-11-28T18:31:11;9.50;99.90
25628;DHT22;40915;50.826;4.356;2022-11-28T18:33:37;9.50;99.90
25628;DHT22;40915;50.826;4.356;2022-11-28T18:36:18;9.50;99.90
25628;DHT22;40915;50.826;4.356;2022-11-28T18:38:44;9.50;99.90
25628;DHT22;40915;50.826;4.356;2022-11-28T18:41:13;9.50;99.90
25628;DHT22;40915;50.826;4.356;2022-11-28T18:43:39;9.50;99.90
25628;DHT22;40915;50.826;4.356;2022-11-28T18:46:06;9.50;99.90
25628;DHT22;40915;50.826;4.356;2022-11-28T18:48:34;9.50;99.90
25628;DHT22;40915;50.826;4.356;2022-11-28T18:51:11;9.50;99.90
25628;DHT22;40915;50.826;4.356;2022-11-28T18:53:37;9.50;99.90
25628;DHT22;40915;50.826;4.356;2022-11-28T18:56:04;9.50;99.90
25628;DHT22;40915;50.826;4.356;2022-11-28T18:58:33;9.50;99.90
25628;DHT22;40915;50.826;4.356;2022-11-28T19:00:59;9.50;99.90
25628;DHT22;40915;50.826;4.356;2022-11-28T19:03:25;9.50;99.90